Wedgeport, Canada
Current Conditions -  °F | °C
As of 1:00 AM on Saturday 29 Nov 2014 (Local Time) from CYQI Reporting Station
Broken Clouds Broken Clouds  
Wind Chill: 19°   Ceiling: 5000
Heat Index: 30°   Visibility: 12mi
Dew Point: 19°   Wind: 15mph
Humidity: 64%   Direction: 330°NNW
Pressure: 30.05"   Gusts: NA
Location:  43.73°N, 65.98°W
Report Text: CYQI 290500Z 33013KT 12SM BKN050 M01/M07 A3005 RMK SC6 SLP178
Loading
Personal Weather Stations






























Interactive Weather Map New forecast layout! Learn more

10-Day Weather Forecast

Advertisements
Track Severe Weather on mobile